Jewel Of The Seas — C6FW9 — position and weather

sailwx.info

Track history (hours):
 
Tides and Currents Weather Stations Pressure Air Temp Water Temp Dewpoint Dewpoint Depression Visibility Wind Speed Wind Dir Waves Ship Positions

Jewel Of The Seas

Operator: Royal Caribbean Cruises Ltd

Last reported at 2019-Oct-22 08:56 UTC. Time now 2019-Oct-23 00:10 UTC.
Position N 37°47' E 016°02'.

Length 290 m; draft 8.6 m.

Type: Passenger vessel. MMSI: 311583000.

Date/timePositionNaut miles runAvg speedWind from/ knotsBaromVisibWave heightAir tempDewpointWater temp
2019-Oct-22 08:56N 37°47' E 016°02'819.1
2019-Oct-22 08:30N 37°49' E 015°52'1218.7
2019-Oct-22 07:50N 37°54' E 015°38'719.5
2019-Oct-22 07:30N 38°00' E 015°34'918.0
2019-Oct-22 07:00N 38°09' E 015°35'918.8
2019-Oct-22 06:30N 38°18' E 015°41'918.0
2019-Oct-22 06:00N 38°25' E 015°35'1019.2
2019-Oct-22 05:30N 38°32' E 015°26'1019.4
2019-Oct-22 05:00N 38°39' E 015°17'1019.8
2019-Oct-22 04:29N 38°46' E 015°08'1019.8
2019-Oct-22 04:00N 38°53' E 014°60'5319.7
2019-Oct-22 01:18N 39°34' E 014°15'619.5
2019-Oct-22 01:00N 39°38' E 014°10'1019.6
2019-Oct-22 00:31N 39°46' E 014°02'1019.6
2019-Oct-22 00:00N 39°53' E 013°54'1019.6
2019-Oct-21 23:31N 40°01' E 013°46'1019.7
2019-Oct-21 23:01N 40°08' E 013°37'1019.6
2019-Oct-21 22:31N 40°15' E 013°29'1019.4
2019-Oct-21 22:01N 40°23' E 013°21'1019.6
2019-Oct-21 21:30N 40°30' E 013°12'1019.6
2019-Oct-21 21:00N 40°38' E 013°04'1019.5
2019-Oct-21 20:30N 40°45' E 012°56'2919.0
2019-Oct-21 19:00N 41°08' E 012°33'1718.8
2019-Oct-21 18:04N 41°23' E 012°20'118.9
2019-Oct-21 18:01N 41°24' E 012°19'918.8
2019-Oct-21 17:30N 41°32' E 012°12'70 3.2
2019-Oct-20 19:48N 40°52' E 013°30'517.7
2019-Oct-20 19:30N 40°49' E 013°35'917.8
2019-Oct-20 19:00N 40°43' E 013°44'917.2
2019-Oct-20 18:30N 40°38' E 013°53'817.1
2019-Oct-20 18:00N 40°39' E 014°04'917.3
2019-Oct-20 17:30N 40°44' E 014°13'612.3
2019-Oct-20 17:00N 40°50' E 014°16'0 0.3
2019-Oct-20 16:24N 40°50' E 014°16'0 0.0
2019-Oct-20 15:54N 40°50' E 014°16'0 0.0
2019-Oct-20 15:24N 40°50' E 014°16'0 0.0
2019-Oct-20 14:54N 40°50' E 014°16'0 0.0
2019-Oct-20 14:27N 40°50' E 014°16'0 0.0
2019-Oct-20 13:57N 40°50' E 014°16'0 0.0
2019-Oct-20 13:27N 40°50' E 014°16'0 0.0
2019-Oct-20 12:54N 40°50' E 014°16'0 0.0
2019-Oct-20 12:27N 40°50' E 014°16'0 0.0
2019-Oct-20 11:57N 40°50' E 014°16'0 0.0
2019-Oct-20 11:30N 40°50' E 014°16'0 0.0
2019-Oct-20 11:00N 40°50' E 014°16'0 0.0
2019-Oct-20 10:30N 40°50' E 014°16'0 0.0
2019-Oct-20 10:00N 40°50' E 014°16'0 0.0
2019-Oct-20 09:30N 40°50' E 014°16'0 0.0
2019-Oct-20 09:00N 40°50' E 014°16'0 0.0
2019-Oct-20 08:30N 40°50' E 014°16'0 0.0
2019-Oct-20 08:00N 40°50' E 014°16'0 0.0
2019-Oct-20 07:30N 40°50' E 014°16'0 0.0
2019-Oct-20 07:00N 40°50' E 014°16'0 0.0
2019-Oct-20 06:30N 40°50' E 014°16'0 0.0
2019-Oct-20 06:00N 40°50' E 014°16'0 0.0
2019-Oct-20 05:30N 40°50' E 014°16'1 2.9
2019-Oct-20 05:00N 40°49' E 014°17'816.3
2019-Oct-20 04:30N 40°42' E 014°14'917.4
2019-Oct-20 04:00N 40°34' E 014°10'917.6
2019-Oct-20 03:30N 40°25' E 014°14'918.0
2019-Oct-20 03:00N 40°18' E 014°20'918.0
2019-Oct-20 02:30N 40°09' E 014°25'7917.8
2019-Oct-19 22:03N 38°60' E 015°14'118.2
2019-Oct-19 21:59N 38°59' E 015°15'918.0
2019-Oct-19 21:30N 38°52' E 015°22'917.8
2019-Oct-19 21:00N 38°44' E 015°25'917.6
2019-Oct-19 20:30N 38°36' E 015°31'917.7
2019-Oct-19 20:00N 38°28' E 015°36'917.0
2019-Oct-19 19:30N 38°21' E 015°42'714.0
2019-Oct-19 19:01N 38°15' E 015°38'918.5
2019-Oct-19 18:30N 38°05' E 015°36'917.9
2019-Oct-19 18:00N 37°57' E 015°38'1118.7
2019-Oct-19 17:26N 37°52' E 015°50'818.6
2019-Oct-19 17:00N 37°49' E 015°59'36415.6
2019-Oct-18 17:43N 37°19' E 023°37'718.0
2019-Oct-18 17:19N 37°26' E 023°39'618.1
2019-Oct-18 17:00N 37°31' E 023°41'918.0
2019-Oct-18 16:30N 37°40' E 023°42'917.9
2019-Oct-18 16:00N 37°48' E 023°37'816.0
2019-Oct-18 15:31N 37°56' E 023°37'1 1.1
2019-Oct-18 15:00N 37°56' E 023°37'0 0.0
2019-Oct-18 14:27N 37°56' E 023°37'0 0.0
2019-Oct-18 14:00N 37°56' E 023°37'0 0.0
2019-Oct-18 13:27N 37°56' E 023°37'0 0.0
2019-Oct-18 13:00N 37°56' E 023°37'0 0.0
2019-Oct-18 12:30N 37°56' E 023°37'0 0.0
2019-Oct-18 12:00N 37°56' E 023°37'0 0.0
2019-Oct-18 11:27N 37°56' E 023°37'0 0.0
2019-Oct-18 11:00N 37°56' E 023°37'0 0.0
2019-Oct-18 10:30N 37°56' E 023°37'0 0.0
2019-Oct-18 09:57N 37°56' E 023°37'0 0.0
2019-Oct-18 09:30N 37°56' E 023°37'0 0.0
2019-Oct-18 09:00N 37°56' E 023°37'0 0.0
2019-Oct-18 08:30N 37°56' E 023°37'0 0.0
2019-Oct-18 08:00N 37°56' E 023°37'0 0.0
2019-Oct-18 07:24N 37°56' E 023°37'0 0.0
2019-Oct-18 07:00N 37°56' E 023°37'0 0.0
2019-Oct-18 06:27N 37°56' E 023°37'0 0.0
2019-Oct-18 06:00N 37°56' E 023°37'0 0.0
2019-Oct-18 05:30N 37°56' E 023°37'0 0.0
2019-Oct-18 05:00N 37°56' E 023°37'0 0.0
2019-Oct-18 04:30N 37°56' E 023°37'0 0.0
2019-Oct-18 04:00N 37°56' E 023°37'0 0.3
2019-Oct-18 03:30N 37°56' E 023°37'2 3.9
2019-Oct-18 03:00N 37°54' E 023°37'3 6.3
2019-Oct-18 02:30N 37°52' E 023°39'5 9.7
2019-Oct-18 02:00N 37°47' E 023°42'5 9.9
2019-Oct-18 01:30N 37°43' E 023°44'510.3
2019-Oct-18 01:00N 37°39' E 023°48'510.7
2019-Oct-18 00:30N 37°35' E 023°53'  
2019-Oct-15 18:12N 37°15' E 025°52'315.2
2019-Oct-15 18:00N 37°17' E 025°49'1215.8
2019-Oct-15 17:14N 37°26' E 025°38'416.2
2019-Oct-15 17:00N 37°28' E 025°35'816.2
2019-Oct-15 16:30N 37°32' E 025°26'713.9
2019-Oct-15 16:01N 37°29' E 025°17'2 3.7
2019-Oct-15 15:29N 37°28' E 025°19'0 0.0
2019-Oct-15 14:59N 37°28' E 025°19'0 0.0
2019-Oct-15 14:29N 37°28' E 025°19'0 0.0
2019-Oct-15 13:59N 37°28' E 025°19'0 0.0
2019-Oct-15 13:29N 37°28' E 025°19'0 0.0
2019-Oct-15 12:59N 37°28' E 025°19'0 0.0
2019-Oct-15 12:29N 37°28' E 025°19'0 0.0
2019-Oct-15 11:59N 37°28' E 025°19'0 0.0
2019-Oct-15 11:29N 37°28' E 025°19'0 0.0
2019-Oct-15 10:59N 37°28' E 025°19'0 0.0
2019-Oct-15 10:29N 37°28' E 025°19'0 0.0
2019-Oct-15 09:59N 37°28' E 025°19'0 0.0
2019-Oct-15 09:29N 37°28' E 025°19'0 0.0
2019-Oct-15 08:59N 37°28' E 025°19'0 0.0
2019-Oct-15 08:29N 37°28' E 025°19'0 0.0
2019-Oct-15 07:56N 37°28' E 025°19'0 0.0
2019-Oct-15 07:29N 37°28' E 025°19'0 0.0
2019-Oct-15 06:59N 37°28' E 025°19'0 0.0
2019-Oct-15 06:29N 37°28' E 025°19'0 0.0
2019-Oct-15 05:59N 37°28' E 025°19'0 0.0
2019-Oct-15 05:29N 37°28' E 025°19'0 0.0
2019-Oct-15 04:56N 37°28' E 025°19'0 0.0
2019-Oct-15 04:26N 37°28' E 025°19'0 0.0
2019-Oct-15 03:59N 37°28' E 025°19'1 1.3
2019-Oct-15 03:30N 37°28' E 025°18'612.0
2019-Oct-15 03:00N 37°27' E 025°11'612.5
2019-Oct-15 02:30N 37°21' E 025°07'612.8
2019-Oct-15 02:00N 37°15' E 025°04'612.8
2019-Oct-15 01:31N 37°09' E 025°01'10013.3
2019-Oct-14 18:00N 35°36' E 024°16'713.3
2019-Oct-14 17:28N 35°30' E 024°12'0 0.0
2019-Oct-14 07:18N 35°29' E 024°12'41718.8
2019-Oct-13 09:06N 37°47' E 016°02'1319.1
2019-Oct-13 08:25N 37°52' E 015°46'919.5
2019-Oct-13 07:56N 37°57' E 015°36'819.0
2019-Oct-13 07:31N 38°05' E 015°35'918.6
2019-Oct-13 07:00N 38°14' E 015°37'611.8
2019-Oct-13 06:31N 38°20' E 015°38'816.2
2019-Oct-13 06:00N 38°26' E 015°31'1019.7
2019-Oct-13 05:30N 38°33' E 015°23'1019.6
2019-Oct-13 05:01N 38°41' E 015°14'1019.6
2019-Oct-13 04:31N 38°48' E 015°06'1019.6
2019-Oct-13 04:00N 38°55' E 014°57'  
Track history (hours):
 
Tides and Currents Weather Stations Pressure Air Temp Water Temp Dewpoint Dewpoint Depression Visibility Wind Speed Wind Dir Waves Ship Positions

Jewel Of The Seas

Operator: Royal Caribbean Cruises Ltd

Last reported at 2019-Oct-22 08:56 UTC. Time now 2019-Oct-23 00:10 UTC.
Position N 37°47' E 016°02'.

Length 290 m; draft 8.6 m.

Type: Passenger vessel. MMSI: 311583000.

Date/timePositionNaut miles runAvg speedWind from/ knotsBaromVisibWave heightAir tempDewpointWater temp
2019-Oct-22 08:56N 37°47' E 016°02'819.1
2019-Oct-22 08:30N 37°49' E 015°52'1218.7
2019-Oct-22 07:50N 37°54' E 015°38'719.5
2019-Oct-22 07:30N 38°00' E 015°34'918.0
2019-Oct-22 07:00N 38°09' E 015°35'918.8
2019-Oct-22 06:30N 38°18' E 015°41'918.0
2019-Oct-22 06:00N 38°25' E 015°35'1019.2
2019-Oct-22 05:30N 38°32' E 015°26'1019.4
2019-Oct-22 05:00N 38°39' E 015°17'1019.8
2019-Oct-22 04:29N 38°46' E 015°08'1019.8
2019-Oct-22 04:00N 38°53' E 014°60'5319.7
2019-Oct-22 01:18N 39°34' E 014°15'619.5
2019-Oct-22 01:00N 39°38' E 014°10'1019.6
2019-Oct-22 00:31N 39°46' E 014°02'1019.6
2019-Oct-22 00:00N 39°53' E 013°54'1019.6
2019-Oct-21 23:31N 40°01' E 013°46'1019.7
2019-Oct-21 23:01N 40°08' E 013°37'1019.6
2019-Oct-21 22:31N 40°15' E 013°29'1019.4
2019-Oct-21 22:01N 40°23' E 013°21'1019.6
2019-Oct-21 21:30N 40°30' E 013°12'1019.6
2019-Oct-21 21:00N 40°38' E 013°04'1019.5
2019-Oct-21 20:30N 40°45' E 012°56'2919.0
2019-Oct-21 19:00N 41°08' E 012°33'1718.8
2019-Oct-21 18:04N 41°23' E 012°20'118.9
2019-Oct-21 18:01N 41°24' E 012°19'918.8
2019-Oct-21 17:30N 41°32' E 012°12'70 3.2
2019-Oct-20 19:48N 40°52' E 013°30'517.7
2019-Oct-20 19:30N 40°49' E 013°35'917.8
2019-Oct-20 19:00N 40°43' E 013°44'917.2
2019-Oct-20 18:30N 40°38' E 013°53'817.1
2019-Oct-20 18:00N 40°39' E 014°04'917.3
2019-Oct-20 17:30N 40°44' E 014°13'612.3
2019-Oct-20 17:00N 40°50' E 014°16'0 0.3
2019-Oct-20 16:24N 40°50' E 014°16'0 0.0
2019-Oct-20 15:54N 40°50' E 014°16'0 0.0
2019-Oct-20 15:24N 40°50' E 014°16'0 0.0
2019-Oct-20 14:54N 40°50' E 014°16'0 0.0
2019-Oct-20 14:27N 40°50' E 014°16'0 0.0
2019-Oct-20 13:57N 40°50' E 014°16'0 0.0
2019-Oct-20 13:27N 40°50' E 014°16'0 0.0
2019-Oct-20 12:54N 40°50' E 014°16'0 0.0
2019-Oct-20 12:27N 40°50' E 014°16'0 0.0
2019-Oct-20 11:57N 40°50' E 014°16'0 0.0
2019-Oct-20 11:30N 40°50' E 014°16'0 0.0
2019-Oct-20 11:00N 40°50' E 014°16'0 0.0
2019-Oct-20 10:30N 40°50' E 014°16'0 0.0
2019-Oct-20 10:00N 40°50' E 014°16'0 0.0
2019-Oct-20 09:30N 40°50' E 014°16'0 0.0
2019-Oct-20 09:00N 40°50' E 014°16'0 0.0
2019-Oct-20 08:30N 40°50' E 014°16'0 0.0
2019-Oct-20 08:00N 40°50' E 014°16'0 0.0
2019-Oct-20 07:30N 40°50' E 014°16'0 0.0
2019-Oct-20 07:00N 40°50' E 014°16'0 0.0
2019-Oct-20 06:30N 40°50' E 014°16'0 0.0
2019-Oct-20 06:00N 40°50' E 014°16'0 0.0
2019-Oct-20 05:30N 40°50' E 014°16'1 2.9
2019-Oct-20 05:00N 40°49' E 014°17'816.3
2019-Oct-20 04:30N 40°42' E 014°14'917.4
2019-Oct-20 04:00N 40°34' E 014°10'917.6
2019-Oct-20 03:30N 40°25' E 014°14'918.0
2019-Oct-20 03:00N 40°18' E 014°20'918.0
2019-Oct-20 02:30N 40°09' E 014°25'7917.8
2019-Oct-19 22:03N 38°60' E 015°14'118.2
2019-Oct-19 21:59N 38°59' E 015°15'918.0
2019-Oct-19 21:30N 38°52' E 015°22'917.8
2019-Oct-19 21:00N 38°44' E 015°25'917.6
2019-Oct-19 20:30N 38°36' E 015°31'917.7
2019-Oct-19 20:00N 38°28' E 015°36'917.0
2019-Oct-19 19:30N 38°21' E 015°42'714.0
2019-Oct-19 19:01N 38°15' E 015°38'918.5
2019-Oct-19 18:30N 38°05' E 015°36'917.9
2019-Oct-19 18:00N 37°57' E 015°38'1118.7
2019-Oct-19 17:26N 37°52' E 015°50'818.6
2019-Oct-19 17:00N 37°49' E 015°59'36415.6
2019-Oct-18 17:43N 37°19' E 023°37'718.0
2019-Oct-18 17:19N 37°26' E 023°39'618.1
2019-Oct-18 17:00N 37°31' E 023°41'918.0
2019-Oct-18 16:30N 37°40' E 023°42'917.9
2019-Oct-18 16:00N 37°48' E 023°37'816.0
2019-Oct-18 15:31N 37°56' E 023°37'1 1.1
2019-Oct-18 15:00N 37°56' E 023°37'0 0.0
2019-Oct-18 14:27N 37°56' E 023°37'0 0.0
2019-Oct-18 14:00N 37°56' E 023°37'0 0.0
2019-Oct-18 13:27N 37°56' E 023°37'0 0.0
2019-Oct-18 13:00N 37°56' E 023°37'0 0.0
2019-Oct-18 12:30N 37°56' E 023°37'0 0.0
2019-Oct-18 12:00N 37°56' E 023°37'0 0.0
2019-Oct-18 11:27N 37°56' E 023°37'0 0.0
2019-Oct-18 11:00N 37°56' E 023°37'0 0.0
2019-Oct-18 10:30N 37°56' E 023°37'0 0.0
2019-Oct-18 09:57N 37°56' E 023°37'0 0.0
2019-Oct-18 09:30N 37°56' E 023°37'0 0.0
2019-Oct-18 09:00N 37°56' E 023°37'0 0.0
2019-Oct-18 08:30N 37°56' E 023°37'0 0.0
2019-Oct-18 08:00N 37°56' E 023°37'0 0.0
2019-Oct-18 07:24N 37°56' E 023°37'0 0.0
2019-Oct-18 07:00N 37°56' E 023°37'0 0.0
2019-Oct-18 06:27N 37°56' E 023°37'0 0.0
2019-Oct-18 06:00N 37°56' E 023°37'0 0.0
2019-Oct-18 05:30N 37°56' E 023°37'0 0.0
2019-Oct-18 05:00N 37°56' E 023°37'0 0.0
2019-Oct-18 04:30N 37°56' E 023°37'0 0.0
2019-Oct-18 04:00N 37°56' E 023°37'0 0.3
2019-Oct-18 03:30N 37°56' E 023°37'2 3.9
2019-Oct-18 03:00N 37°54' E 023°37'3 6.3
2019-Oct-18 02:30N 37°52' E 023°39'5 9.7
2019-Oct-18 02:00N 37°47' E 023°42'5 9.9
2019-Oct-18 01:30N 37°43' E 023°44'510.3
2019-Oct-18 01:00N 37°39' E 023°48'510.7
2019-Oct-18 00:30N 37°35' E 023°53'  
2019-Oct-15 18:12N 37°15' E 025°52'315.2
2019-Oct-15 18:00N 37°17' E 025°49'1215.8
2019-Oct-15 17:14N 37°26' E 025°38'416.2
2019-Oct-15 17:00N 37°28' E 025°35'816.2
2019-Oct-15 16:30N 37°32' E 025°26'713.9
2019-Oct-15 16:01N 37°29' E 025°17'2 3.7
2019-Oct-15 15:29N 37°28' E 025°19'0 0.0
2019-Oct-15 14:59N 37°28' E 025°19'0 0.0
2019-Oct-15 14:29N 37°28' E 025°19'0 0.0
2019-Oct-15 13:59N 37°28' E 025°19'0 0.0
2019-Oct-15 13:29N 37°28' E 025°19'0 0.0
2019-Oct-15 12:59N 37°28' E 025°19'0 0.0
2019-Oct-15 12:29N 37°28' E 025°19'0 0.0
2019-Oct-15 11:59N 37°28' E 025°19'0 0.0
2019-Oct-15 11:29N 37°28' E 025°19'0 0.0
2019-Oct-15 10:59N 37°28' E 025°19'0 0.0
2019-Oct-15 10:29N 37°28' E 025°19'0 0.0
2019-Oct-15 09:59N 37°28' E 025°19'0 0.0
2019-Oct-15 09:29N 37°28' E 025°19'0 0.0
2019-Oct-15 08:59N 37°28' E 025°19'0 0.0
2019-Oct-15 08:29N 37°28' E 025°19'0 0.0
2019-Oct-15 07:56N 37°28' E 025°19'0 0.0
2019-Oct-15 07:29N 37°28' E 025°19'0 0.0
2019-Oct-15 06:59N 37°28' E 025°19'0 0.0
2019-Oct-15 06:29N 37°28' E 025°19'0 0.0
2019-Oct-15 05:59N 37°28' E 025°19'0 0.0
2019-Oct-15 05:29N 37°28' E 025°19'0 0.0
2019-Oct-15 04:56N 37°28' E 025°19'0 0.0
2019-Oct-15 04:26N 37°28' E 025°19'0 0.0
2019-Oct-15 03:59N 37°28' E 025°19'1 1.3
2019-Oct-15 03:30N 37°28' E 025°18'612.0
2019-Oct-15 03:00N 37°27' E 025°11'612.5
2019-Oct-15 02:30N 37°21' E 025°07'612.8
2019-Oct-15 02:00N 37°15' E 025°04'612.8
2019-Oct-15 01:31N 37°09' E 025°01'10013.3
2019-Oct-14 18:00N 35°36' E 024°16'713.3
2019-Oct-14 17:28N 35°30' E 024°12'0 0.0
2019-Oct-14 07:18N 35°29' E 024°12'41718.8
2019-Oct-13 09:06N 37°47' E 016°02'1319.1
2019-Oct-13 08:25N 37°52' E 015°46'919.5
2019-Oct-13 07:56N 37°57' E 015°36'819.0
2019-Oct-13 07:31N 38°05' E 015°35'918.6
2019-Oct-13 07:00N 38°14' E 015°37'611.8
2019-Oct-13 06:31N 38°20' E 015°38'816.2
2019-Oct-13 06:00N 38°26' E 015°31'1019.7
2019-Oct-13 05:30N 38°33' E 015°23'1019.6
2019-Oct-13 05:01N 38°41' E 015°14'1019.6
2019-Oct-13 04:31N 38°48' E 015°06'1019.6
2019-Oct-13 04:00N 38°55' E 014°57'  

Dump ship's entire track history